Time;durP1;ratioP1;P1;durP2;ratioP2;P2;SDS_P1;SDS_P2;PMS_P1;PMS_P2;Temp;Humidity;BMP_temperature;BMP_pressure;BME280_temperature;BME280_humidity;BME280_pressure;Samples;Min_cycle;Max_cycle;Signal;HPM_P1;HPM_P2
2022/10/04 00:00:34;;;;;;;24.10;11.35;;;11.30;99.90;;;;;;5006673;28;20052;-76
2022/10/04 00:03:05;;;;;;;21.15;10.80;;;11.30;99.90;;;;;;5033006;28;20037;-76
2022/10/04 00:05:31;;;;;;;22.98;11.15;;;11.30;99.90;;;;;;5038918;28;20052;-76
2022/10/04 00:08:05;;;;;;;22.33;11.40;;;11.20;99.90;;;;;;5047086;28;20045;-76
2022/10/04 00:10:32;;;;;;;25.52;11.95;;;11.30;99.90;;;;;;5044202;28;20077;-76
2022/10/04 00:13:17;;;;;;;24.60;12.60;;;11.20;99.90;;;;;;5020390;28;20037;-76
2022/10/04 00:15:48;;;;;;;24.38;12.27;;;11.30;99.90;;;;;;5029063;28;20049;-77
2022/10/04 00:18:27;;;;;;;23.17;11.73;;;11.30;99.90;;;;;;5030230;28;20056;-76
2022/10/04 00:20:52;;;;;;;27.75;12.25;;;11.30;99.90;;;;;;5036023;28;20155;-78
2022/10/04 00:23:24;;;;;;;26.08;11.55;;;11.30;99.90;;;;;;5032101;28;20040;-76
2022/10/04 00:25:52;;;;;;;25.70;13.10;;;11.30;99.90;;;;;;5032862;28;20410;-76
2022/10/04 00:28:20;;;;;;;28.30;13.07;;;11.30;99.90;;;;;;5047251;28;20045;-78
2022/10/04 00:31:19;;;;;;;25.73;12.02;;;11.20;99.90;;;;;;5045568;28;20129;-76
2022/10/04 00:33:47;;;;;;;23.65;12.40;;;11.20;99.90;;;;;;5043050;28;20044;-77
2022/10/04 00:36:25;;;;;;;20.60;12.27;;;11.20;99.90;;;;;;5036006;28;20049;-76
2022/10/04 00:39:03;;;;;;;27.25;13.40;;;11.20;99.90;;;;;;5049791;28;20451;-76
2022/10/04 00:41:48;;;;;;;23.45;13.05;;;11.20;99.90;;;;;;5045757;28;20187;-76
2022/10/04 00:44:58;;;;;;;26.83;12.88;;;11.10;99.90;;;;;;5028486;28;20057;-77
2022/10/04 00:47:45;;;;;;;21.20;11.15;;;11.10;99.90;;;;;;5012578;28;20069;-76
2022/10/04 00:50:49;;;;;;;21.80;12.80;;;11.10;99.90;;;;;;5049758;28;20041;-79
2022/10/04 00:53:34;;;;;;;26.98;13.25;;;11.10;99.90;;;;;;5033725;28;20072;-77
2022/10/04 00:56:04;;;;;;;31.45;13.55;;;11.10;99.90;;;;;;5057742;28;20056;-76
2022/10/04 00:58:38;;;;;;;28.42;14.45;;;11.00;99.90;;;;;;5031898;28;20059;-76
2022/10/04 01:01:04;;;;;;;23.77;13.65;;;11.00;99.90;;;;;;5042603;28;20087;-77
2022/10/04 01:03:38;;;;;;;26.08;13.55;;;11.00;99.90;;;;;;5048599;28;20987;-76
2022/10/04 01:06:06;;;;;;;30.40;15.85;;;11.00;99.90;;;;;;5048774;28;20119;-77
2022/10/04 01:08:49;;;;;;;21.90;13.77;;;10.90;99.90;;;;;;5057283;28;20626;-75
2022/10/04 01:11:21;;;;;;;29.95;15.25;;;10.90;99.90;;;;;;5033143;28;20041;-76
2022/10/04 01:14:04;;;;;;;40.67;15.68;;;10.90;99.90;;;;;;5029385;28;20056;-76
2022/10/04 01:16:33;;;;;;;26.52;13.88;;;10.80;99.90;;;;;;5016676;28;20061;-76
2022/10/04 01:19:23;;;;;;;24.13;13.95;;;10.90;99.90;;;;;;5032524;28;20049;-76
2022/10/04 01:22:03;;;;;;;33.50;15.32;;;10.80;99.90;;;;;;5039958;28;20044;-76
2022/10/04 01:24:38;;;;;;;24.30;14.63;;;10.80;99.90;;;;;;5047741;28;20494;-76
2022/10/04 01:27:30;;;;;;;28.67;16.33;;;10.80;99.90;;;;;;5035509;28;20053;-76
2022/10/04 01:29:55;;;;;;;28.48;16.35;;;10.80;99.90;;;;;;5026484;28;20501;-75
2022/10/04 01:32:21;;;;;;;32.70;15.82;;;10.80;99.90;;;;;;5011058;28;20038;-76
2022/10/04 01:34:47;;;;;;;27.15;16.02;;;10.80;99.90;;;;;;5042502;28;20049;-77
2022/10/04 01:37:13;;;;;;;32.58;15.68;;;10.80;99.90;;;;;;5045271;28;20051;-76
2022/10/04 01:39:39;;;;;;;29.67;15.30;;;10.90;99.90;;;;;;5050386;28;20127;-77
2022/10/04 01:42:26;;;;;;;26.67;16.05;;;10.90;99.90;;;;;;5063280;28;20059;-75
2022/10/04 01:45:14;;;;;;;27.23;15.27;;;11.00;99.90;;;;;;5046088;28;20060;-75
2022/10/04 01:47:53;;;;;;;23.13;14.95;;;10.90;99.90;;;;;;5067075;28;20548;-77
2022/10/04 01:50:28;;;;;;;30.40;15.07;;;11.00;99.90;;;;;;5056122;28;20062;-79
2022/10/04 01:53:07;;;;;;;26.90;15.20;;;11.00;99.90;;;;;;5035856;28;20053;-74
2022/10/04 01:55:34;;;;;;;30.50;15.20;;;11.00;99.90;;;;;;5052784;28;20041;-76
2022/10/04 01:58:09;;;;;;;28.40;14.63;;;11.10;99.90;;;;;;5047322;28;20075;-74
2022/10/04 02:00:39;;;;;;;25.83;15.07;;;11.00;99.90;;;;;;5058105;28;20090;-75
2022/10/04 02:03:21;;;;;;;28.55;15.32;;;11.00;99.90;;;;;;5059783;28;20074;-74
2022/10/04 02:05:58;;;;;;;28.45;15.68;;;11.00;99.90;;;;;;5065871;28;20440;-75
2022/10/04 02:08:31;;;;;;;33.53;16.00;;;11.10;99.90;;;;;;5052193;28;20489;-75
2022/10/04 02:10:59;;;;;;;23.90;14.40;;;11.10;99.90;;;;;;5045976;28;20482;-75
2022/10/04 02:13:31;;;;;;;23.88;14.27;;;11.10;99.90;;;;;;5055406;28;20127;-75
2022/10/04 02:15:58;;;;;;;30.25;15.27;;;11.10;99.90;;;;;;5044972;28;20420;-75
2022/10/04 02:18:25;;;;;;;25.33;13.82;;;11.10;99.90;;;;;;5022409;28;20053;-75
2022/10/04 02:20:52;;;;;;;27.02;14.77;;;11.00;99.90;;;;;;5068873;28;20044;-75
2022/10/04 02:23:20;;;;;;;28.40;15.20;;;11.10;99.90;;;;;;5031032;28;20097;-75
2022/10/04 02:25:46;;;;;;;29.27;15.95;;;11.10;99.90;;;;;;5071212;28;20044;-74
2022/10/04 02:28:14;;;;;;;27.58;16.27;;;11.00;99.90;;;;;;5046213;28;20132;-74
2022/10/04 02:33:41;;;;;;;26.73;16.17;;;11.00;99.90;;;;;;5054500;28;20069;-75
2022/10/04 02:36:08;;;;;;;26.25;15.98;;;10.80;99.90;;;;;;5080684;28;20062;-75
2022/10/04 02:38:40;;;;;;;32.85;16.08;;;10.80;99.90;;;;;;5070908;28;20056;-74
2022/10/04 02:41:25;;;;;;;23.52;15.38;;;10.70;99.90;;;;;;5055502;28;20055;-74
2022/10/04 02:43:57;;;;;;;33.35;16.08;;;10.70;99.90;;;;;;5069308;28;20084;-75
2022/10/04 02:46:28;;;;;;;29.75;15.15;;;10.50;99.90;;;;;;5071730;28;20052;-75
2022/10/04 02:49:00;;;;;;;31.77;14.50;;;10.50;99.90;;;;;;5050011;28;20074;-75
2022/10/04 02:51:56;;;;;;;24.58;14.82;;;10.40;99.90;;;;;;5066510;28;20063;-79
2022/10/04 02:54:36;;;;;;;18.00;14.18;;;10.30;99.90;;;;;;5069117;28;20514;-75
2022/10/04 02:57:02;;;;;;;28.98;15.57;;;10.30;99.90;;;;;;5070068;28;20396;-75
2022/10/04 02:59:30;;;;;;;25.48;14.70;;;10.20;99.90;;;;;;5035116;28;20040;-79
2022/10/04 03:02:00;;;;;;;32.17;16.95;;;10.30;99.90;;;;;;5054958;28;20105;-75
2022/10/04 03:04:39;;;;;;;29.63;16.23;;;10.30;99.90;;;;;;5068375;28;20056;-79
2022/10/04 03:07:07;;;;;;;27.48;14.90;;;10.30;99.90;;;;;;5038417;28;20083;-75
2022/10/04 03:09:35;;;;;;;31.10;16.02;;;10.30;99.90;;;;;;5073998;28;20036;-75
2022/10/04 03:12:03;;;;;;;31.08;16.60;;;10.30;99.90;;;;;;5054817;28;20047;-75
2022/10/04 03:14:31;;;;;;;30.38;15.50;;;10.30;99.90;;;;;;5073795;28;20458;-79
2022/10/04 03:17:02;;;;;;;25.73;15.23;;;10.30;99.90;;;;;;5070386;28;20565;-75
2022/10/04 03:19:30;;;;;;;38.55;16.88;;;10.30;99.90;;;;;;5061015;28;20554;-80
2022/10/04 03:22:01;;;;;;;32.30;15.77;;;10.30;99.90;;;;;;5071200;28;20063;-75
2022/10/04 03:24:31;;;;;;;33.03;16.50;;;10.40;99.90;;;;;;5073317;28;20036;-75
2022/10/04 03:27:00;;;;;;;26.23;15.63;;;10.30;99.90;;;;;;5061847;28;20048;-75
2022/10/04 03:29:29;;;;;;;31.98;15.48;;;10.30;99.90;;;;;;5060804;28;20044;-74
2022/10/04 03:31:57;;;;;;;33.35;15.02;;;10.30;99.90;;;;;;5057018;28;20115;-75
2022/10/04 03:34:40;;;;;;;34.10;15.18;;;10.30;99.90;;;;;;5073074;28;20059;-75
2022/10/04 03:37:11;;;;;;;20.52;13.45;;;10.20;99.90;;;;;;5073781;28;20048;-75
2022/10/04 03:39:41;;;;;;;26.73;14.75;;;10.20;99.90;;;;;;5073590;28;20602;-77
2022/10/04 03:42:27;;;;;;;23.73;14.43;;;10.20;99.90;;;;;;5061263;28;20469;-75
2022/10/04 03:44:58;;;;;;;24.27;13.93;;;10.10;99.90;;;;;;5056524;28;20044;-75
2022/10/04 03:47:30;;;;;;;30.10;14.13;;;10.00;99.90;;;;;;5073971;28;20440;-74
2022/10/04 03:50:01;;;;;;;22.85;14.00;;;10.00;99.90;;;;;;5072849;28;20485;-74
2022/10/04 03:52:31;;;;;;;24.05;13.90;;;10.00;99.90;;;;;;5073789;28;20447;-75
2022/10/04 03:55:01;;;;;;;30.08;14.93;;;9.90;99.90;;;;;;5050945;28;20158;-76
2022/10/04 03:57:28;;;;;;;26.50;14.73;;;9.90;99.90;;;;;;5073691;28;20075;-75
2022/10/04 03:59:56;;;;;;;25.98;15.10;;;9.90;99.90;;;;;;5055361;28;20036;-74
2022/10/04 04:02:24;;;;;;;33.58;15.48;;;9.90;99.90;;;;;;5069981;28;20392;-75
2022/10/04 04:05:30;;;;;;;29.85;16.80;;;9.80;99.90;;;;;;5059541;28;20044;-75
2022/10/04 04:08:11;;;;;;;38.63;16.00;;;9.80;99.90;;;;;;5017272;28;20038;-75
2022/10/04 04:10:45;;;;;;;35.10;16.92;;;9.70;99.90;;;;;;5073003;28;20056;-80
2022/10/04 04:13:39;;;;;;;28.75;15.80;;;9.70;99.90;;;;;;5044533;28;20044;-74
2022/10/04 04:16:07;;;;;;;34.05;16.13;;;9.80;99.90;;;;;;5050796;28;20497;-75
2022/10/04 04:18:36;;;;;;;33.08;16.52;;;9.80;99.90;;;;;;5054973;28;20062;-75
2022/10/04 04:21:05;;;;;;;29.83;16.70;;;9.80;99.90;;;;;;5072975;28;20059;-74
2022/10/04 04:23:38;;;;;;;29.33;17.85;;;9.80;99.90;;;;;;5055501;28;20549;-74
2022/10/04 04:26:44;;;;;;;33.97;18.30;;;9.90;99.90;;;;;;5048143;28;20493;-75
2022/10/04 04:29:09;;;;;;;31.42;18.27;;;9.90;99.90;;;;;;5067956;28;20048;-78
2022/10/04 04:31:47;;;;;;;37.63;17.98;;;9.90;99.90;;;;;;5049927;28;20046;-75
2022/10/04 04:34:23;;;;;;;33.53;18.60;;;9.90;99.90;;;;;;5058131;28;20056;-78
2022/10/04 04:36:49;;;;;;;34.20;18.05;;;9.80;99.90;;;;;;5071471;28;20507;-76
2022/10/04 04:39:42;;;;;;;27.77;16.75;;;9.80;99.90;;;;;;5056202;28;20123;-76
2022/10/04 04:42:23;;;;;;;30.92;18.10;;;9.80;99.90;;;;;;5061148;28;20095;-78
2022/10/04 04:45:13;;;;;;;30.13;17.80;;;9.70;99.90;;;;;;5057845;28;20131;-77
2022/10/04 04:47:43;;;;;;;33.42;17.67;;;9.60;99.90;;;;;;5042476;28;20564;-80
2022/10/04 04:50:16;;;;;;;31.15;17.75;;;9.60;99.90;;;;;;5045689;28;20086;-77
2022/10/04 04:52:49;;;;;;;35.65;18.85;;;9.50;99.90;;;;;;5055798;28;20047;-80
2022/10/04 04:55:24;;;;;;;31.30;17.60;;;9.50;99.90;;;;;;5048219;28;20044;-77
2022/10/04 04:57:54;;;;;;;39.75;20.05;;;9.40;99.90;;;;;;5061440;28;20043;-77
2022/10/04 05:00:27;;;;;;;35.35;20.08;;;9.30;99.90;;;;;;5062401;28;20051;-77
2022/10/04 05:02:56;;;;;;;33.65;20.42;;;9.30;99.90;;;;;;5050081;28;20040;-76
2022/10/04 05:05:30;;;;;;;34.53;20.10;;;9.30;99.90;;;;;;5066366;28;20131;-76
2022/10/04 05:08:12;;;;;;;41.67;21.20;;;9.30;99.90;;;;;;5053275;28;20045;-76
2022/10/04 05:10:41;;;;;;;42.28;21.58;;;9.30;99.90;;;;;;5065538;28;20866;-78
2022/10/04 05:13:09;;;;;;;43.28;22.52;;;9.30;99.90;;;;;;5070309;28;20127;-77
2022/10/04 05:15:38;;;;;;;35.05;20.70;;;9.40;99.90;;;;;;5044353;28;20048;-78
2022/10/04 05:18:33;;;;;;;40.60;21.60;;;9.40;99.90;;;;;;5063992;28;20671;-77
2022/10/04 05:21:24;;;;;;;33.90;22.85;;;9.40;99.90;;;;;;5039105;28;20126;-77
2022/10/04 05:23:50;;;;;;;40.15;23.00;;;9.40;99.90;;;;;;5065196;28;20454;-79
2022/10/04 05:26:23;;;;;;;44.95;23.20;;;9.40;99.90;;;;;;5054680;28;20040;-77
2022/10/04 05:28:49;;;;;;;39.63;22.52;;;9.40;99.90;;;;;;5064395;28;20055;-77
2022/10/04 05:31:21;;;;;;;42.65;24.83;;;9.40;99.90;;;;;;5035707;28;20393;-77
2022/10/04 05:33:50;;;;;;;35.58;23.60;;;9.40;99.90;;;;;;5060424;28;20497;-82
2022/10/04 05:36:16;;;;;;;41.42;24.23;;;9.40;99.90;;;;;;5071344;28;20060;-76
2022/10/04 05:38:49;;;;;;;45.45;24.38;;;9.30;99.90;;;;;;5053793;28;20127;-77
2022/10/04 05:41:45;;;;;;;41.10;24.98;;;9.30;99.90;;;;;;5071154;28;20052;-77
2022/10/04 05:44:35;;;;;;;42.90;25.77;;;9.30;99.90;;;;;;5065562;28;20047;-77
2022/10/04 05:47:04;;;;;;;51.55;27.33;;;9.30;99.90;;;;;;5051374;28;20062;-75
2022/10/04 05:49:39;;;;;;;44.60;25.55;;;9.30;99.90;;;;;;5054367;28;20048;-75
2022/10/04 05:52:13;;;;;;;52.55;27.83;;;9.30;99.90;;;;;;5061070;28;20062;-76
2022/10/04 05:54:39;;;;;;;50.63;27.42;;;9.30;99.90;;;;;;5064124;28;20545;-76
2022/10/04 05:57:14;;;;;;;44.63;27.63;;;9.30;99.90;;;;;;5029152;28;20123;-77
2022/10/04 05:59:49;;;;;;;47.70;27.87;;;9.30;99.90;;;;;;5052612;28;20405;-76
2022/10/04 06:02:33;;;;;;;47.33;26.42;;;9.30;99.90;;;;;;5052560;28;20834;-77
2022/10/04 06:05:08;;;;;;;44.60;27.13;;;9.20;99.90;;;;;;5035350;28;20053;-78
2022/10/04 06:07:52;;;;;;;55.03;28.75;;;9.30;99.90;;;;;;5069683;28;20051;-76
2022/10/04 06:10:39;;;;;;;43.35;23.98;;;9.30;99.90;;;;;;5071067;28;20059;-76
2022/10/04 06:13:50;;;;;;;48.55;26.92;;;9.20;99.90;;;;;;5051717;28;20055;-76
2022/10/04 06:16:26;;;;;;;49.70;25.50;;;9.30;99.90;;;;;;5012806;28;20088;-76
2022/10/04 06:19:16;;;;;;;52.85;28.13;;;9.20;99.90;;;;;;5066162;28;20101;-81
2022/10/04 06:22:14;;;;;;;44.58;25.83;;;9.20;99.90;;;;;;5087879;28;20054;-76
2022/10/04 06:24:43;;;;;;;49.15;27.60;;;9.20;99.90;;;;;;5045902;28;20122;-76
2022/10/04 06:27:30;;;;;;;46.67;28.40;;;9.20;99.90;;;;;;5047840;28;20444;-76
2022/10/04 06:30:05;;;;;;;43.30;26.00;;;9.20;99.90;;;;;;5034827;28;20135;-76
2022/10/04 06:32:49;;;;;;;54.33;30.38;;;9.30;99.90;;;;;;5053300;28;20040;-76
2022/10/04 06:35:47;;;;;;;50.45;28.85;;;9.20;99.90;;;;;;5057095;28;20060;-77
2022/10/04 06:38:34;;;;;;;44.25;27.48;;;9.30;99.90;;;;;;5069106;28;20052;-77
2022/10/04 06:41:18;;;;;;;39.85;26.80;;;9.30;99.90;;;;;;5034377;28;20098;-76
2022/10/04 06:43:55;;;;;;;50.70;28.63;;;9.30;99.90;;;;;;5063731;28;20466;-77
2022/10/04 06:46:48;;;;;;;41.30;28.15;;;9.30;99.90;;;;;;5065387;28;20501;-77
2022/10/04 06:49:33;;;;;;;46.30;29.27;;;9.40;99.90;;;;;;5071636;28;20055;-76
2022/10/04 06:52:45;;;;;;;54.78;29.75;;;9.40;99.90;;;;;;5074495;28;20036;-77
2022/10/04 06:55:26;;;;;;;44.83;28.33;;;9.50;99.90;;;;;;5021728;28;20088;-77
2022/10/04 06:58:07;;;;;;;48.97;28.90;;;9.50;99.90;;;;;;5055791;28;20036;-76
2022/10/04 07:00:59;;;;;;;45.97;29.35;;;9.60;99.90;;;;;;5057496;28;20663;-79
2022/10/04 07:03:37;;;;;;;44.17;29.17;;;9.70;99.90;;;;;;5039748;28;20448;-77
2022/10/04 07:06:06;;;;;;;44.55;28.10;;;9.70;99.90;;;;;;5056836;28;20398;-77
2022/10/04 07:08:46;;;;;;;43.88;28.77;;;9.80;99.90;;;;;;5074376;28;20073;-76
2022/10/04 07:11:31;;;;;;;44.95;27.85;;;9.90;99.90;;;;;;5062004;28;20066;-77
2022/10/04 07:14:10;;;;;;;43.50;26.40;;;10.00;99.90;;;;;;5073098;28;20097;-79
2022/10/04 07:16:48;;;;;;;37.17;26.30;;;10.10;99.90;;;;;;5074676;28;20455;-77
2022/10/04 07:19:20;;;;;;;38.45;27.63;;;10.20;99.90;;;;;;5074006;28;20056;-77
2022/10/04 07:21:57;;;;;;;37.45;24.20;;;10.30;99.90;;;;;;5073135;28;20048;-76
2022/10/04 07:24:52;;;;;;;38.95;24.02;;;10.30;99.90;;;;;;5069089;28;20052;-78
2022/10/04 07:27:26;;;;;;;36.60;24.77;;;10.30;99.90;;;;;;5068710;28;20166;-78
2022/10/04 07:29:55;;;;;;;40.05;24.40;;;10.40;99.90;;;;;;5057527;28;20047;-77
2022/10/04 07:32:33;;;;;;;40.95;25.52;;;10.40;99.90;;;;;;5036281;28;20044;-77
2022/10/04 07:35:15;;;;;;;34.47;23.88;;;10.40;99.90;;;;;;5066429;28;20056;-78
2022/10/04 07:38:04;;;;;;;36.75;22.52;;;10.50;99.90;;;;;;5055563;28;20056;-77
2022/10/04 07:40:37;;;;;;;33.20;22.67;;;10.50;99.90;;;;;;5069989;28;20461;-77
2022/10/04 07:43:25;;;;;;;32.55;21.75;;;10.60;99.90;;;;;;5052827;28;20048;-81
2022/10/04 07:46:02;;;;;;;28.95;21.70;;;10.70;99.90;;;;;;5070391;28;20046;-77
2022/10/04 07:48:28;;;;;;;32.65;21.55;;;10.80;99.90;;;;;;5069547;28;20165;-77
2022/10/04 07:50:59;;;;;;;28.75;20.00;;;11.00;99.90;;;;;;5073551;28;20074;-77
2022/10/04 07:53:54;;;;;;;32.20;19.92;;;11.20;99.90;;;;;;5064503;28;20075;-76
2022/10/04 07:56:30;;;;;;;29.45;19.02;;;11.50;99.90;;;;;;5062992;28;20053;-77
2022/10/04 07:59:25;;;;;;;32.08;21.15;;;11.80;99.90;;;;;;5068291;28;20079;-77
2022/10/04 08:02:28;;;;;;;28.35;18.73;;;12.00;99.90;;;;;;5052265;28;20052;-77
2022/10/04 08:05:11;;;;;;;25.02;17.40;;;12.00;99.90;;;;;;5053584;28;20094;-77
2022/10/04 08:07:53;;;;;;;22.85;16.75;;;12.10;99.90;;;;;;5050682;28;20040;-77
2022/10/04 08:10:33;;;;;;;28.42;15.93;;;12.30;99.90;;;;;;5066996;28;20093;-77
2022/10/04 08:13:27;;;;;;;20.15;15.98;;;12.40;99.90;;;;;;5066594;28;20051;-77
2022/10/04 08:15:57;;;;;;;24.63;15.32;;;12.60;99.90;;;;;;5063692;28;20056;-77
2022/10/04 08:18:37;;;;;;;21.13;13.73;;;12.80;99.90;;;;;;5066721;28;20056;-77
2022/10/04 08:21:08;;;;;;;23.00;14.13;;;12.90;99.90;;;;;;5066406;28;20080;-77
2022/10/04 08:23:46;;;;;;;22.75;13.80;;;13.00;99.90;;;;;;5050718;28;20055;-77
2022/10/04 08:26:31;;;;;;;21.70;14.57;;;13.00;99.90;;;;;;5055646;28;20044;-77
2022/10/04 08:31:55;;;;;;;20.95;13.55;;;12.80;99.90;;;;;;5073040;28;20048;-77
2022/10/04 08:34:43;;;;;;;24.23;13.68;;;12.70;99.90;;;;;;5059465;28;20409;-77
2022/10/04 08:37:30;;;;;;;23.73;13.90;;;12.50;99.90;;;;;;5072383;28;20060;-81
2022/10/04 08:40:35;;;;;;;22.55;13.25;;;12.40;99.90;;;;;;5053135;28;20105;-77
2022/10/04 08:43:09;;;;;;;21.40;13.68;;;12.50;99.90;;;;;;5067020;28;20043;-77
2022/10/04 08:46:11;;;;;;;27.63;14.25;;;12.50;99.90;;;;;;5072752;28;20123;-77
2022/10/04 08:49:15;;;;;;;18.42;14.02;;;12.60;99.90;;;;;;5060881;28;20127;-77
2022/10/04 08:51:59;;;;;;;23.98;13.25;;;12.70;99.90;;;;;;5072329;28;20481;-77
2022/10/04 08:54:45;;;;;;;18.23;12.98;;;12.70;99.90;;;;;;5054748;28;20136;-77
2022/10/04 08:57:14;;;;;;;17.07;11.77;;;12.80;99.90;;;;;;5072188;28;20040;-81
2022/10/04 08:59:58;;;;;;;23.48;12.77;;;12.90;99.90;;;;;;5071481;28;20040;-77
2022/10/04 09:02:30;;;;;;;19.48;12.15;;;13.00;99.90;;;;;;5054628;28;20068;-78
2022/10/04 09:05:08;;;;;;;19.30;12.35;;;13.10;99.90;;;;;;5072275;28;20044;-76
2022/10/04 09:07:56;;;;;;;19.73;10.70;;;13.30;99.90;;;;;;5054864;28;20048;-77
2022/10/04 09:10:55;;;;;;;19.10;11.18;;;13.50;99.90;;;;;;5071489;28;20374;-76
2022/10/04 09:13:58;;;;;;;16.30;10.20;;;13.60;99.90;;;;;;5054341;28;20048;-77
2022/10/04 09:16:46;;;;;;;17.33;9.88;;;13.80;99.90;;;;;;5063186;28;20051;-77
2022/10/04 09:19:18;;;;;;;18.02;10.50;;;13.90;99.90;;;;;;5039989;28;20060;-76
2022/10/04 09:21:46;;;;;;;21.60;9.65;;;13.90;99.90;;;;;;5050243;28;20056;-77
2022/10/04 09:24:48;;;;;;;14.70;8.55;;;14.00;99.90;;;;;;5055337;28;20048;-77
2022/10/04 09:27:50;;;;;;;14.10;8.80;;;14.20;99.90;;;;;;5058556;28;20059;-81
2022/10/04 09:30:21;;;;;;;15.05;8.85;;;14.30;99.90;;;;;;4981505;28;20193;-81
2022/10/04 09:33:10;;;;;;;16.85;9.02;;;14.50;99.90;;;;;;5028881;28;20049;-78
2022/10/04 09:36:18;;;;;;;16.23;9.15;;;14.70;99.90;;;;;;5011518;28;20058;-77
2022/10/04 09:38:52;;;;;;;11.50;9.13;;;14.80;98.90;;;;;;5050634;28;20048;-77
2022/10/04 09:41:30;;;;;;;16.23;8.43;;;15.00;76.50;;;;;;5067837;28;20124;-82
2022/10/04 09:44:07;;;;;;;12.57;9.23;;;15.10;60.10;;;;;;5068303;28;20068;-77
2022/10/04 09:46:58;;;;;;;17.48;9.75;;;15.20;30.30;;;;;;5050673;28;20469;-77
2022/10/04 09:50:12;;;;;;;14.15;8.77;;;15.20;77.80;;;;;;5050598;28;20056;-77
2022/10/04 09:52:41;;;;;;;13.20;8.85;;;15.30;90.10;;;;;;5067368;28;20712;-78
2022/10/04 09:55:41;;;;;;;12.18;9.05;;;15.40;90.80;;;;;;5051521;28;20603;-77
2022/10/04 09:58:31;;;;;;;14.18;8.63;;;15.50;36.20;;;;;;5068240;28;20048;-77
2022/10/04 10:01:24;;;;;;;16.35;8.43;;;15.60;10.50;;;;;;5067218;28;20448;-78
2022/10/04 10:04:27;;;;;;;17.42;8.05;;;15.70;31.70;;;;;;5050431;28;20119;-77
2022/10/04 10:07:11;;;;;;;13.55;7.82;;;15.90;1.00;;;;;;5068016;28;20217;-78
2022/10/04 10:16:20;;;;;;;12.98;7.38;;;16.40;4.70;;;;;;5067855;28;20052;-77
2022/10/04 10:19:24;;;;;;;11.25;7.63;;;16.40;3.40;;;;;;5066020;28;20052;-77
2022/10/04 10:22:29;;;;;;;13.57;6.93;;;16.40;1.00;;;;;;5067388;28;20056;-77
2022/10/04 10:25:27;;;;;;;10.75;6.68;;;16.50;1.00;;;;;;5042892;28;20521;-77
2022/10/04 10:28:02;;;;;;;10.52;6.80;;;16.70;1.00;;;;;;5038868;28;20127;-77
2022/10/04 10:30:45;;;;;;;12.75;6.95;;;16.70;1.00;;;;;;5069956;28;20063;-76
2022/10/04 10:33:34;;;;;;;12.23;7.43;;;16.90;1.00;;;;;;5052614;28;20155;-76
2022/10/04 10:36:19;;;;;;;13.75;7.05;;;17.10;1.00;;;;;;5071633;28;20135;-76
2022/10/04 10:39:08;;;;;;;14.52;6.55;;;17.20;1.00;;;;;;5065366;28;20052;-77
2022/10/04 10:42:08;;;;;;;13.05;7.28;;;17.30;1.00;;;;;;5051849;28;20144;-76
2022/10/04 10:44:46;;;;;;;12.95;6.80;;;17.40;1.00;;;;;;5053434;28;20067;-76
2022/10/04 10:47:47;;;;;;;13.00;6.35;;;17.40;1.00;;;;;;5072233;28;20045;-76
2022/10/04 10:50:58;;;;;;;12.30;6.30;;;17.50;1.00;;;;;;5001544;28;20083;-78
2022/10/04 10:53:51;;;;;;;11.65;6.47;;;17.60;1.00;;;;;;5051680;28;20052;-79
2022/10/04 10:56:27;;;;;;;11.80;6.22;;;17.70;99.90;;;;;;5068501;28;20048;-76
2022/10/04 10:59:19;;;;;;;9.85;6.05;;;17.70;99.90;;;;;;5071321;28;20052;-77
2022/10/04 11:02:04;;;;;;;13.02;5.85;;;17.80;99.90;;;;;;5058027;28;20159;-76
2022/10/04 11:04:39;;;;;;;11.48;5.15;;;17.90;99.90;;;;;;5070246;28;20401;-77
2022/10/04 11:07:38;;;;;;;9.00;5.72;;;18.00;99.90;;;;;;5070800;28;20390;-76
2022/10/04 11:10:32;;;;;;;10.65;5.28;;;18.20;1.00;;;;;;5071156;28;20049;-75
2022/10/04 11:13:25;;;;;;;14.18;6.53;;;18.30;99.90;;;;;;5070913;28;20409;-76
2022/10/04 11:16:18;;;;;;;10.23;6.78;;;18.30;99.90;;;;;;5066419;28;20120;-76
2022/10/04 11:19:17;;;;;;;9.52;5.60;;;18.20;1.00;;;;;;5084752;28;20123;-76
2022/10/04 11:21:51;;;;;;;11.02;5.78;;;18.20;99.90;;;;;;5069383;28;20402;-76
2022/10/04 11:24:55;;;;;;;15.80;6.28;;;18.40;1.00;;;;;;5054267;28;20047;-77
2022/10/04 11:28:02;;;;;;;11.55;5.38;;;18.60;99.90;;;;;;5055433;28;20091;-76
2022/10/04 11:31:01;;;;;;;8.60;5.20;;;18.70;99.90;;;;;;4972436;28;20140;-76
2022/10/04 11:34:10;;;;;;;7.95;5.28;;;18.80;1.00;;;;;;5063706;28;20055;-76
2022/10/04 11:37:14;;;;;;;11.98;5.50;;;18.70;1.00;;;;;;5053242;28;20128;-76
2022/10/04 11:39:40;;;;;;;8.35;4.93;;;18.70;1.00;;;;;;5069953;28;20094;-76
2022/10/04 11:42:27;;;;;;;10.57;6.75;;;18.80;1.00;;;;;;5054151;28;20048;-76
2022/10/04 11:45:32;;;;;;;10.07;5.68;;;19.00;1.00;;;;;;5053306;28;20513;-75
2022/10/04 11:48:19;;;;;;;10.20;5.35;;;19.10;1.00;;;;;;5068092;28;20056;-76
2022/10/04 11:50:51;;;;;;;10.30;5.43;;;19.20;1.00;;;;;;5050350;28;20440;-77
2022/10/04 11:53:51;;;;;;;7.78;5.13;;;19.20;1.00;;;;;;5050914;28;20041;-76
2022/10/04 11:56:28;;;;;;;14.80;5.70;;;19.30;1.00;;;;;;5050747;28;20047;-77
2022/10/04 11:59:03;;;;;;;9.32;6.20;;;19.70;1.00;;;;;;5033992;28;20359;-76
2022/10/04 12:01:50;;;;;;;8.35;5.50;;;19.80;1.00;;;;;;5038104;28;20083;-76
2022/10/04 12:04:20;;;;;;;10.20;5.00;;;19.90;1.00;;;;;;5050138;28;20048;-76
2022/10/04 12:07:30;;;;;;;9.20;5.18;;;20.40;1.00;;;;;;5061247;28;20055;-76
2022/10/04 12:10:26;;;;;;;9.73;5.30;;;21.40;1.00;;;;;;5044280;28;20048;-76
2022/10/04 12:12:51;;;;;;;11.17;5.27;;;22.50;1.00;;;;;;5045271;28;20056;-76
2022/10/04 12:15:29;;;;;;;11.40;5.50;;;23.10;1.00;;;;;;5035781;28;20337;-75
2022/10/04 12:18:16;;;;;;;11.23;5.18;;;23.30;1.00;;;;;;5053060;28;20045;-76
2022/10/04 12:20:55;;;;;;;11.00;5.40;;;23.50;1.00;;;;;;5055894;28;20056;-76
2022/10/04 12:23:45;;;;;;;10.30;5.43;;;24.00;1.00;;;;;;5069032;28;20048;-76
2022/10/04 12:26:31;;;;;;;8.73;4.97;;;24.30;1.00;;;;;;5063851;28;20045;-76
2022/10/04 12:29:09;;;;;;;10.18;5.70;;;24.70;1.00;;;;;;5045371;28;20315;-76
2022/10/04 12:31:42;;;;;;;6.28;4.82;;;25.20;1.00;;;;;;5050547;28;20053;-76
2022/10/04 12:34:13;;;;;;;10.27;5.88;;;25.30;1.00;;;;;;5052889;28;20053;-77
2022/10/04 12:37:10;;;;;;;10.48;5.55;;;25.70;1.00;;;;;;5071509;28;20048;-80
2022/10/04 12:39:38;;;;;;;;;;;25.80;1.00;;;;;;5060847;28;20048;-77
2022/10/04 12:42:07;;;;;;;9.30;4.95;;;25.80;99.90;;;;;;5060288;28;19920;-76
2022/10/04 12:45:09;;;;;;;6.60;4.18;;;25.30;99.90;;;;;;5058997;28;20056;-77
2022/10/04 12:47:38;;;;;;;6.50;4.38;;;25.40;99.90;;;;;;5055129;28;20054;-76
2022/10/04 12:50:30;;;;;;;12.05;5.30;;;25.60;1.00;;;;;;5071271;28;20048;-76
2022/10/04 12:53:39;;;;;;;7.93;4.72;;;25.40;1.00;;;;;;5054535;28;20056;-76
2022/10/04 12:56:08;;;;;;;7.57;4.60;;;24.50;1.00;;;;;;5050890;28;20083;-77
2022/10/04 12:58:51;;;;;;;8.98;5.18;;;24.30;1.00;;;;;;5072036;28;20485;-76
2022/10/04 13:01:28;;;;;;;11.20;5.40;;;24.70;17.10;;;;;;5070067;28;20119;-76
2022/10/04 13:04:06;;;;;;;8.68;4.32;;;25.00;19.80;;;;;;5070012;28;20401;-76
2022/10/04 13:06:50;;;;;;;11.10;4.95;;;24.90;21.60;;;;;;5072613;28;20040;-78
2022/10/04 13:09:28;;;;;;;10.80;5.18;;;24.80;27.10;;;;;;5055758;28;20051;-76
2022/10/04 13:12:10;;;;;;;10.27;4.90;;;24.50;24.60;;;;;;5055154;28;20056;-76
2022/10/04 13:15:01;;;;;;;10.38;5.85;;;24.40;26.50;;;;;;5061120;28;20126;-76
2022/10/04 13:17:51;;;;;;;10.95;4.95;;;24.20;30.20;;;;;;5054884;28;20127;-76
2022/10/04 13:20:44;;;;;;;12.02;5.53;;;23.90;40.70;;;;;;5055345;28;20473;-76
2022/10/04 13:23:20;;;;;;;11.07;5.35;;;23.90;39.00;;;;;;5055494;28;20073;-77
2022/10/04 13:26:25;;;;;;;9.02;5.72;;;24.20;43.00;;;;;;5071635;28;20040;-76
2022/10/04 13:29:23;;;;;;;7.90;4.80;;;24.50;42.00;;;;;;5071308;28;20079;-76
2022/10/04 13:32:02;;;;;;;10.38;5.03;;;24.20;46.10;;;;;;5055045;28;20050;-76
2022/10/04 13:34:47;;;;;;;9.20;4.60;;;23.60;50.40;;;;;;5072049;28;20105;-77
2022/10/04 13:37:19;;;;;;;11.55;5.38;;;23.60;50.90;;;;;;5071911;28;20138;-76
2022/10/04 13:40:06;;;;;;;9.85;5.50;;;23.30;50.40;;;;;;5071734;28;20052;-80
2022/10/04 13:42:44;;;;;;;6.53;4.18;;;23.00;47.70;;;;;;5072084;28;20040;-78
2022/10/04 13:45:37;;;;;;;10.85;5.10;;;22.60;50.60;;;;;;5054734;28;20056;-78
2022/10/04 13:48:25;;;;;;;10.18;4.70;;;22.20;53.90;;;;;;5071616;28;20052;-78
2022/10/04 13:51:27;;;;;;;9.88;5.15;;;21.90;57.10;;;;;;5071606;28;20044;-76
2022/10/04 13:57:21;;;;;;;9.52;4.20;;;21.10;68.90;;;;;;5060654;28;20145;-78
2022/10/04 14:00:13;;;;;;;13.15;4.53;;;20.60;76.90;;;;;;5052053;28;20056;-80